Fergus Falls, MN

4:47 PM CDT on September 22, 2014 (GMT -0500)
Fergus Falls Municipal-Mickelson | Change Station
CLOSE
Current Station
Airport
Location: Fergus Falls,
Elevation: 1184 ft
Nearby Weather Stations

Elev 1184 ft 46.29 °N, 96.15 °W | Updated 13 minutes ago

Clear
Clear
75 °F
Feels Like 75 °F
N
10
Wind Variable Wind from SSW
Gusts 18 mph

Today
High -- | Low -- °F
--% Chance of Precip.
Yesterday
High -- | Low -- °F
Precip. -- in
7:11 AM 7:21 PM
Waning Crescent, 2% visible
Pressure 30.11 in
Visibility 10.0 miles
Clouds Clear
Dew Point 39 °F
Humidity 27%
Rainfall 0.00 in
Snow Depth Not available.
UV 2 out of 12
Pollen 3.40 out of 12
Air Quality Not available.
Flu Activity Not available.
METAR KFFM 222134Z AUTO 20009G16KT 10SM CLR 24/04 A3011 RMK AO2

More Conditions Fewer Conditions

Pressure 30.11 in
Visibility 10.0 miles
Clouds Clear
Dew Point 39 °F
Humidity 27%
Rainfall 0.00 in
Snow Depth Not available.
UV 2 out of 12
Pollen 3.40 out of 12
Air Quality Not available.
Flu Activity Not available.
METAR KFFM 222134Z AUTO 20009G16KT 10SM CLR 24/04 A3011 RMK AO2

More Conditions Fewer Conditions

10-Day Weather Forecast

Almanac

Astronomy

Sep. 22, 2014 Rise Set
Actual Time 7:11 AM CDT 7:21 PM CDT
Civil Twilight 6:41 AM CDT 7:51 PM CDT
Nautical Twilight 6:05 AM CDT 8:26 PM CDT
Astronomical Twilight 5:29 AM CDT 9:03 PM CDT
Moon 5:37 AM CDT 6:31 PM CDT
Length of Visible Light 13h 10m
Length of Day
12h 10m
Tomorrow will be 3m 15s shorter.
Waning Crescent, 2% of the Moon is Illuminated
Today
Waning Crescent
Sep 24
New
Oct 1
First Quarter
Oct 8
Full
Oct 15
Last Quarter

Today's Extremes

State Highs State Lows

Community

WunderPhotos

Upload Photos

1,755,537 photos uploaded!

WunderBlogs® & News

Nearby

Snow Depth

Station Depth Elevation
No new snow has been reported.

Earthquake Activity

City Distance Mag. Time & Date
No recent earthquake activity has been reported nearby.
Minimum magnitude displayed is 2.5.

Coastal Water Temperatures

Place Temperature
No Stations Reporting

Nearby Weather Stations